Detroit Lakes, MN

10:04 AM CDT on May 28, 2017 (GMT -0500)
Detroit Lakes

Weather History for KDTL - December, 2012

Change the Weather History Date:

Wednesday, December 5, 2012

  Actual Average Record
Temperature  
Mean Temperature 26 °F -  
Max Temperature 37 °F 27 °F 47 °F (1988)
Min Temperature 14 °F 8 °F -24 °F (1955)
Degree Days  
Heating Degree Days 40    
Moisture  
Dew Point 19 °F    
Average Humidity 73    
Maximum Humidity 93    
Minimum Humidity 55    
Precipitation  
Precipitation 0.00 in - - ()
Sea Level Pressure  
Sea Level Pressure 29.99 in    
Wind  
Wind Speed 14 mph (SSE)    
Max Wind Speed 22 mph    
Max Gust Speed 29 mph    
Visibility 10 miles    
Events      
Averages and records for this station are not official NWS values.
T = Trace of Precipitation, MM = Missing Value Source: NWS Daily Summary

Daily Weather History Graph

Daily Weather History Graph

Search for Another Location

Airport or City:

Trip Planner

Search our weather history database for the weather conditions in past years. The results will help you decide how hot, cold, wet, or windy it might be!

Date:

Astronomy

Dec. 05, 2012 Rise Set
Actual Time 7:53 AM CST 4:35 PM CST
Civil Twilight 7:18 AM CST 5:10 PM CST
Nautical Twilight 6:40 AM CST 5:48 PM CST
Astronomical Twilight 6:03 AM CST 6:25 PM CST
Moon 11:45 PM CST (12/5) 11:59 AM CST (12/5)
Length of Visible Light 9h 52m
Length of Day
8h 42m
Waning Gibbous, 59% of the Moon is Illuminated
Dec 5
Waning Gibbous
Dec 6
Last Quarter
Dec 13
New
Dec 19
First Quarter
Dec 28
Full

Hourly Weather History & Observations

Time (CST) Temp. Windchill Dew Point Humidity Pressure Visibility Wind Dir Wind Speed Gust Speed Precip Events Conditions
12:13 AM 14.0 °F 6.5 °F 12.2 °F 93% 30.34 in 10.0 mi ESE 4.6 mph - N/A   Clear
12:32 AM 15.8 °F 5.1 °F 12.2 °F 86% 30.33 in 10.0 mi SE 8.1 mph - N/A   Clear
12:52 AM 15.8 °F 3.4 °F 12.2 °F 86% 30.32 in 10.0 mi SE 10.4 mph - N/A   Clear
1:13 AM 15.8 °F 4.2 °F 12.2 °F 86% 30.33 in 10.0 mi SE 9.2 mph - N/A   Clear
1:52 AM 15.8 °F 3.4 °F 12.2 °F 86% 30.32 in 10.0 mi SSE 10.4 mph - N/A   Clear
2:13 AM 15.8 °F 2.7 °F 12.2 °F 86% 30.31 in 10.0 mi SE 11.5 mph - N/A   Clear
2:33 AM 17.6 °F 5.0 °F 14.0 °F 86% 30.31 in 10.0 mi SE 11.5 mph - N/A   Clear
2:52 AM 17.6 °F 5.0 °F 14.0 °F 86% 30.31 in 10.0 mi SE 11.5 mph - N/A   Clear
3:13 AM 17.6 °F 5.0 °F 14.0 °F 86% 30.29 in 10.0 mi SSE 11.5 mph - N/A   Clear
3:32 AM 17.6 °F 4.3 °F 14.0 °F 86% 30.28 in 10.0 mi SE 12.7 mph - N/A   Clear
3:53 AM 17.6 °F 3.7 °F 14.0 °F 86% 30.27 in 10.0 mi SE 13.8 mph - N/A   Clear
4:13 AM 17.6 °F 3.2 °F 14.0 °F 86% 30.27 in 10.0 mi SE 15.0 mph - N/A   Clear
4:32 AM 17.6 °F 3.2 °F 14.0 °F 86% 30.25 in 10.0 mi SE 15.0 mph - N/A   Clear
4:53 AM 17.6 °F 3.7 °F 14.0 °F 86% 30.24 in 10.0 mi SE 13.8 mph - N/A   Clear
5:13 AM 17.6 °F 3.7 °F 12.2 °F 79% 30.23 in 10.0 mi SE 13.8 mph 21.9 mph N/A   Clear
5:32 AM 17.6 °F 2.2 °F 14.0 °F 86% 30.22 in 10.0 mi SE 17.3 mph 21.9 mph N/A   Clear
5:53 AM 17.6 °F 4.3 °F 14.0 °F 86% 30.23 in 10.0 mi SSE 12.7 mph - N/A   Clear
6:13 AM 17.6 °F 3.7 °F 14.0 °F 86% 30.22 in 10.0 mi SE 13.8 mph 18.4 mph N/A   Clear
6:32 AM 17.6 °F 3.7 °F 14.0 °F 86% 30.21 in 10.0 mi SE 13.8 mph - N/A   Clear
6:53 AM 17.6 °F 2.7 °F 14.0 °F 86% 30.20 in 10.0 mi SE 16.1 mph - N/A   Clear
8:33 AM 19.4 °F 3.6 °F 14.0 °F 80% 30.16 in 10.0 mi SE 19.6 mph 25.3 mph N/A   Clear
8:53 AM 19.4 °F 3.2 °F 14.0 °F 80% 30.14 in 10.0 mi SE 20.7 mph 27.6 mph N/A   Clear
9:12 AM 19.4 °F 4.1 °F 14.0 °F 80% 30.14 in 10.0 mi SE 18.4 mph 26.5 mph N/A   Clear
9:33 AM 21.2 °F 5.6 °F 14.0 °F 74% 30.12 in 10.0 mi SE 20.7 mph 28.8 mph N/A   Clear
9:53 AM 21.2 °F 6.0 °F 15.8 °F 80% 30.11 in 10.0 mi SSE 19.6 mph 25.3 mph N/A   Clear
10:12 AM 23.0 °F 8.3 °F 15.8 °F 74% 30.10 in 10.0 mi SE 19.6 mph 26.5 mph N/A   Clear
10:33 AM 23.0 °F 8.3 °F 15.8 °F 74% 30.08 in 10.0 mi SSE 19.6 mph 24.2 mph N/A   Clear
10:53 AM 24.8 °F 10.0 °F 15.8 °F 69% 30.06 in 10.0 mi SSE 21.9 mph 26.5 mph N/A   Clear
11:12 AM 26.6 °F 12.4 °F 15.8 °F 64% 30.04 in 10.0 mi SE 21.9 mph 27.6 mph N/A   Clear
11:33 AM 26.6 °F 12.7 °F 15.8 °F 64% 30.01 in 10.0 mi SE 20.7 mph 28.8 mph N/A   Clear
11:53 AM 28.4 °F 15.4 °F 15.8 °F 59% 30.00 in 10.0 mi SE 19.6 mph 25.3 mph N/A   Clear
12:12 PM 28.4 °F 15.4 °F 17.6 °F 64% 29.98 in 10.0 mi SE 19.6 mph 25.3 mph N/A   Clear
12:33 PM 30.2 °F 18.5 °F 17.6 °F 60% 29.97 in 10.0 mi SSE 17.3 mph 23.0 mph N/A   Clear
12:53 PM 32.0 °F 21.6 °F 17.6 °F 55% 29.95 in 10.0 mi SSE 15.0 mph 23.0 mph N/A   Clear
1:12 PM 32.0 °F 19.8 °F 19.4 °F 60% 29.94 in 10.0 mi SSE 20.7 mph 25.3 mph N/A   Clear
1:33 PM 32.0 °F 21.2 °F 19.4 °F 60% 29.92 in 10.0 mi SSE 16.1 mph 23.0 mph N/A   Clear
1:53 PM 32.0 °F 22.5 °F 19.4 °F 60% 29.92 in 10.0 mi SSE 12.7 mph 25.3 mph N/A   Clear
2:12 PM 32.0 °F 21.2 °F 19.4 °F 60% 29.91 in 10.0 mi SSE 16.1 mph 23.0 mph N/A   Clear
2:33 PM 32.0 °F 20.8 °F 19.4 °F 60% 29.89 in 10.0 mi SSE 17.3 mph 23.0 mph N/A   Clear
2:53 PM 32.0 °F 19.5 °F 19.4 °F 60% 29.87 in 10.0 mi SSE 21.9 mph 28.8 mph N/A   Clear
3:13 PM 32.0 °F 20.5 °F 21.2 °F 64% 29.86 in 10.0 mi SSE 18.4 mph 23.0 mph N/A   Clear
3:33 PM 32.0 °F 19.8 °F 21.2 °F 64% 29.86 in 10.0 mi SSE 20.7 mph 25.3 mph N/A   Clear
3:53 PM 32.0 °F 19.8 °F 21.2 °F 64% 29.84 in 10.0 mi SSE 20.7 mph - N/A   Clear
4:13 PM 32.0 °F 20.5 °F 21.2 °F 64% 29.83 in 10.0 mi SSE 18.4 mph - N/A   Clear
4:33 PM 32.0 °F 20.1 °F 21.2 °F 64% 29.82 in 10.0 mi SSE 19.6 mph 23.0 mph N/A   Clear
4:53 PM 32.0 °F 19.8 °F 21.2 °F 64% 29.81 in 10.0 mi SSE 20.7 mph 26.5 mph N/A   Clear
5:13 PM 32.0 °F 20.5 °F 21.2 °F 64% 29.80 in 10.0 mi SSE 18.4 mph 25.3 mph N/A   Clear
5:33 PM 32.0 °F 20.5 °F 21.2 °F 64% 29.79 in 10.0 mi SSE 18.4 mph 25.3 mph N/A   Clear
5:53 PM 32.0 °F 21.2 °F 21.2 °F 64% 29.78 in 10.0 mi SSE 16.1 mph - N/A   Clear
6:13 PM 32.0 °F 21.2 °F 23.0 °F 69% 29.78 in 10.0 mi SSE 16.1 mph 23.0 mph N/A   Clear
6:32 PM 32.0 °F 21.2 °F 23.0 °F 69% 29.77 in 10.0 mi SSE 16.1 mph 23.0 mph N/A   Clear
6:53 PM 32.0 °F 21.6 °F 23.0 °F 69% 29.77 in 10.0 mi SSE 15.0 mph 21.9 mph N/A   Clear
7:13 PM 33.8 °F 23.9 °F 23.0 °F 65% 29.77 in 10.0 mi SSE 15.0 mph - N/A   Clear
7:32 PM 33.8 °F 23.5 °F 23.0 °F 65% 29.75 in 10.0 mi SSE 16.1 mph 21.9 mph N/A   Clear
7:53 PM 33.8 °F 23.9 °F 24.8 °F 70% 29.74 in 10.0 mi SSE 15.0 mph - N/A   Clear
8:13 PM 33.8 °F 23.9 °F 24.8 °F 70% 29.73 in 10.0 mi SSE 15.0 mph - N/A   Clear
8:32 PM 35.6 °F 25.9 °F 26.6 °F 70% 29.72 in 10.0 mi SSE 16.1 mph 23.0 mph N/A   Clear
8:53 PM 35.6 °F 26.2 °F 26.6 °F 70% 29.71 in 10.0 mi SSE 15.0 mph - N/A   Clear
9:13 PM 35.6 °F 26.2 °F 26.6 °F 70% 29.71 in 10.0 mi SSE 15.0 mph - N/A   Clear
9:32 PM 35.6 °F 25.9 °F 26.6 °F 70% 29.69 in 10.0 mi SSE 16.1 mph 23.0 mph N/A   Clear
9:53 PM 37.4 °F 28.2 °F 26.6 °F 65% 29.71 in 10.0 mi SSE 16.1 mph - N/A   Clear
10:12 PM 37.4 °F 30.8 °F 26.6 °F 65% 29.72 in 10.0 mi South 9.2 mph - N/A   Clear
10:33 PM 37.4 °F 30.8 °F 28.4 °F 70% 29.71 in 10.0 mi SSE 9.2 mph - N/A   Clear
10:52 PM 37.4 °F 30.3 °F 28.4 °F 70% 29.69 in 10.0 mi SSE 10.4 mph - N/A   Clear
11:13 PM 37.4 °F 30.8 °F 28.4 °F 70% 29.69 in 10.0 mi SSE 9.2 mph - N/A   Clear
11:33 PM 37.4 °F 32.1 °F 28.4 °F 70% 29.70 in 10.0 mi South 6.9 mph - N/A   Clear
11:52 PM 37.4 °F 32.1 °F 30.2 °F 75% 29.71 in 10.0 mi South 6.9 mph - N/A   Light Drizzle